Time;durP1;ratioP1;P1;durP2;ratioP2;P2;SDS_P1;SDS_P2;PMS_P1;PMS_P2;Temp;Humidity;BMP_temperature;BMP_pressure;BME280_temperature;BME280_humidity;BME280_pressure;Samples;Min_cycle;Max_cycle;Signal;HPM_P1;HPM_P2
2022/01/30 00:01:32;;;;;;;42.67;6.22;;;;;;;-146.64;100.00;39751.22;5052447;28;20077;-73
2022/01/30 00:03:57;;;;;;;44.67;5.82;;;;;;;-146.64;100.00;39779.88;5051150;28;20056;-74
2022/01/30 00:06:23;;;;;;;45.75;7.13;;;;;;;-146.64;100.00;39788.06;5070407;28;20365;-74
2022/01/30 00:08:48;;;;;;;50.72;8.38;;;;;;;-146.64;100.00;39808.53;5050499;28;20028;-74
2022/01/30 00:11:19;;;;;;;36.13;6.28;;;;;;;-146.64;100.00;39771.69;5052708;28;20016;-74
2022/01/30 00:13:45;;;;;;;47.38;6.70;;;;;;;-146.64;100.00;39773.75;5053574;28;20062;-73
2022/01/30 00:16:11;;;;;;;37.75;4.80;;;;;;;-146.64;100.00;39800.34;5052957;28;20016;-74
2022/01/30 00:23:32;;;;;;;31.27;5.13;;;;;;;-146.64;100.00;39753.28;5052590;28;20036;-74
2022/01/30 00:25:59;;;;;;;31.73;5.00;;;;;;;-146.64;100.00;39714.38;5052850;28;20038;-74
2022/01/30 00:28:26;;;;;;;38.03;6.47;;;;;;;-146.64;100.00;39726.66;5069869;28;20039;-74
2022/01/30 00:30:55;;;;;;;;;;;;;;;-146.64;100.00;39718.47;5037499;28;20048;-74
2022/01/30 00:33:20;;;;;;;33.70;5.45;;;;;;;-146.64;100.00;39669.34;5038736;28;19912;-74
2022/01/30 00:35:45;;;;;;;32.00;5.00;;;;;;;-146.64;100.00;39734.84;5030462;28;20079;-73
2022/01/30 00:38:15;;;;;;;30.92;5.25;;;;;;;-146.64;100.00;39702.09;5026861;28;20119;-74
2022/01/30 00:40:42;;;;;;;36.58;6.00;;;;;;;-146.64;100.00;39722.56;5054987;28;20032;-73
2022/01/30 00:43:07;;;;;;;50.50;6.68;;;;;;;-146.64;100.00;39657.06;5066375;28;20037;-74
2022/01/30 00:45:33;;;;;;;34.20;5.35;;;;;;;-146.64;100.00;39769.66;5036178;28;20434;-73
2022/01/30 00:47:58;;;;;;;50.00;5.82;;;;;;;-146.64;100.00;39759.41;5034929;28;20039;-74
2022/01/30 00:50:24;;;;;;;38.58;6.40;;;;;;;-146.64;100.00;39759.41;5051491;28;20029;-75
2022/01/30 00:52:53;;;;;;;34.92;6.25;;;;;;;-146.64;100.00;39779.88;5074479;28;20078;-74
2022/01/30 00:55:19;;;;;;;39.17;6.03;;;;;;;-146.64;100.00;39775.78;5074135;28;20028;-74
2022/01/30 00:57:44;;;;;;;40.45;6.70;;;;;;;-146.64;100.00;39783.97;5047067;28;20032;-74
2022/01/30 01:00:10;;;;;;;33.72;5.35;;;;;;;-146.64;100.00;39796.25;5032501;28;20047;-74
2022/01/30 01:02:36;;;;;;;41.00;5.03;;;;;;;-146.64;100.00;39802.41;5032868;28;20029;-74
2022/01/30 01:05:05;;;;;;;47.88;5.75;;;;;;;-146.64;100.00;39816.72;5065394;28;20105;-74
2022/01/30 01:07:33;;;;;;;37.72;6.30;;;;;;;-146.64;100.00;39820.81;5049426;28;20452;-74
2022/01/30 01:10:13;;;;;;;39.83;5.32;;;;;;;-146.64;100.00;39816.72;5034800;28;20025;-74
2022/01/30 01:23:45;;;;;;;41.15;5.32;;;;;;;-146.64;100.00;39841.28;5059754;28;20416;-74
2022/01/30 01:26:10;;;;;;;45.58;5.80;;;;;;;-146.64;100.00;39837.19;5072124;28;20029;-74
2022/01/30 01:28:36;;;;;;;40.65;4.70;;;;;;;-146.64;100.00;39812.63;5039002;28;20547;-74
2022/01/30 01:31:02;;;;;;;40.33;6.18;;;;;;;-146.64;100.00;39861.75;5062573;28;20025;-74
2022/01/30 01:33:37;;;;;;;40.58;6.40;;;;;;;-146.64;100.00;39820.81;5054497;28;20401;-74
2022/01/30 01:36:02;;;;;;;47.97;5.88;;;;;;;-146.64;100.00;39831.06;5065943;28;20095;-74
2022/01/30 01:38:27;;;;;;;45.03;5.90;;;;;;;-146.64;100.00;39822.88;5040278;28;20127;-74
2022/01/30 01:40:54;;;;;;;45.00;5.35;;;;;;;-146.64;100.00;39820.81;5054467;28;20036;-74
2022/01/30 01:43:22;;;;;;;47.35;6.35;;;;;;;-146.64;100.00;39851.53;5050359;28;20064;-74
2022/01/30 01:45:51;;;;;;;40.78;5.70;;;;;;;-146.64;100.00;39853.56;5067706;28;20033;-74
2022/01/30 01:48:16;;;;;;;33.22;4.95;;;;;;;-146.64;100.00;39826.97;5038101;28;20021;-74
2022/01/30 01:50:45;;;;;;;33.83;4.93;;;;;;;-146.64;100.00;39861.75;5037884;28;20097;-73
2022/01/30 01:53:13;;;;;;;40.92;5.90;;;;;;;-146.64;100.00;39839.25;5054700;28;20082;-73
2022/01/30 01:55:42;;;;;;;32.38;4.90;;;;;;;-146.64;100.00;39841.28;5055081;28;20119;-74
2022/01/30 01:58:07;;;;;;;33.65;5.63;;;;;;;-146.64;100.00;39853.56;5055345;28;20050;-74
2022/01/30 02:00:33;;;;;;;40.50;5.53;;;;;;;-146.64;100.00;39841.28;5036751;28;20028;-74
2022/01/30 02:02:58;;;;;;;35.75;5.88;;;;;;;-146.64;100.00;39796.25;5035684;28;20021;-75
2022/01/30 02:05:27;;;;;;;34.55;5.57;;;;;;;-146.64;100.00;39826.97;5055895;28;20033;-75
2022/01/30 02:10:24;;;;;;;45.83;5.85;;;;;;;-146.64;100.00;39783.97;5056240;28;20274;-75
2022/01/30 02:12:53;;;;;;;44.17;6.53;;;;;;;-146.64;100.00;39820.81;5064212;28;20040;-76
2022/01/30 02:26:00;;;;;;;34.45;4.47;;;;;;;-146.64;100.00;39775.78;5057838;28;20066;-75
2022/01/30 02:28:28;;;;;;;39.70;5.70;;;;;;;-146.64;100.00;39749.19;5054331;28;20021;-75
2022/01/30 02:31:02;;;;;;;42.67;5.35;;;;;;;-146.64;100.00;39779.88;5046951;28;20115;-75
2022/01/30 02:33:27;;;;;;;36.53;5.03;;;;;;;-146.64;100.00;39816.72;5052205;28;20025;-75
2022/01/30 02:35:53;;;;;;;21.65;3.13;;;;;;;-146.64;100.00;39804.44;5045044;28;20043;-75
2022/01/30 02:38:20;;;;;;;44.88;5.13;;;;;;;-146.64;100.00;39775.78;5053270;28;20031;-75
2022/01/30 02:40:48;;;;;;;37.20;4.65;;;;;;;-146.64;100.00;39769.66;5054666;28;20365;-75
2022/01/30 02:43:16;;;;;;;37.00;4.75;;;;;;;-146.64;100.00;39771.69;5071298;28;20024;-75
2022/01/30 02:45:48;;;;;;;34.17;5.60;;;;;;;-146.64;100.00;39775.78;5068774;28;20075;-75
2022/01/30 02:48:19;;;;;;;34.30;5.72;;;;;;;-146.64;100.00;39798.31;5069392;28;20115;-76
2022/01/30 02:53:16;;;;;;;40.85;5.28;;;;;;;-146.64;100.00;39783.97;5054279;28;20052;-75
2022/01/30 02:55:42;;;;;;;30.70;4.45;;;;;;;-146.64;100.00;39820.81;5073061;28;20104;-75
2022/01/30 02:58:07;;;;;;;35.33;3.92;;;;;;;-146.64;100.00;39794.22;5072864;28;20039;-75
2022/01/30 03:00:32;;;;;;;38.33;4.63;;;;;;;-146.64;100.00;39736.91;5066630;28;20029;-75
2022/01/30 03:02:58;;;;;;;36.85;4.53;;;;;;;-146.64;100.00;39743.03;5068107;28;20098;-75
2022/01/30 03:05:23;;;;;;;35.20;6.03;;;;;;;-146.64;100.00;39767.59;5054414;28;20027;-75
2022/01/30 03:07:49;;;;;;;39.85;5.65;;;;;;;-146.64;100.00;39775.78;5054794;28;20075;-75
2022/01/30 03:10:14;;;;;;;39.60;4.30;;;;;;;-146.64;100.00;39751.22;5054643;28;20081;-75
2022/01/30 03:12:40;;;;;;;27.80;4.38;;;;;;;-146.64;100.00;39718.47;5054302;28;20032;-75
2022/01/30 03:15:06;;;;;;;32.35;4.85;;;;;;;-146.64;100.00;39743.03;5053649;28;20028;-74
2022/01/30 03:17:31;;;;;;;41.97;6.10;;;;;;;-146.64;100.00;39712.34;5062786;28;20424;-75
2022/01/30 03:19:57;;;;;;;28.98;4.75;;;;;;;-146.64;100.00;39726.66;5037511;28;20405;-75
2022/01/30 03:22:23;;;;;;;28.80;4.97;;;;;;;-146.64;100.00;39747.13;5069746;28;20024;-75
2022/01/30 03:24:48;;;;;;;26.15;4.68;;;;;;;-146.64;100.00;39745.09;5072392;28;20139;-74
2022/01/30 03:27:14;;;;;;;28.75;4.57;;;;;;;-146.64;100.00;39751.22;5071916;28;20028;-75
2022/01/30 03:29:41;;;;;;;29.30;4.05;;;;;;;-146.64;100.00;39763.50;5038051;28;20110;-75
2022/01/30 03:32:07;;;;;;;26.67;3.78;;;;;;;-146.64;100.00;39771.69;5032565;28;20361;-75
2022/01/30 03:34:33;;;;;;;35.60;4.97;;;;;;;-146.64;100.00;39732.81;5061043;28;20044;-75
2022/01/30 03:36:58;;;;;;;25.20;5.43;;;;;;;-146.64;100.00;39720.53;5071364;28;20031;-75
2022/01/30 03:39:23;;;;;;;24.02;4.22;;;;;;;-146.64;100.00;39747.13;5054219;28;20028;-75
2022/01/30 03:41:49;;;;;;;30.42;4.57;;;;;;;-146.64;100.00;39734.84;5070673;28;20029;-75
2022/01/30 03:44:15;;;;;;;24.63;4.03;;;;;;;-146.64;100.00;39732.81;5036036;28;20567;-74
2022/01/30 03:46:40;;;;;;;37.55;4.90;;;;;;;-146.64;100.00;39693.91;5052370;28;20078;-76
2022/01/30 03:49:05;;;;;;;29.80;4.10;;;;;;;-146.64;100.00;39714.38;5069986;28;20031;-76
2022/01/30 03:51:31;;;;;;;30.58;4.70;;;;;;;-146.64;100.00;39702.09;5037549;28;20028;-74
2022/01/30 03:53:56;;;;;;;28.70;3.72;;;;;;;-146.64;100.00;39603.84;5067787;28;20074;-75
2022/01/30 03:56:23;;;;;;;30.80;4.80;;;;;;;-146.64;100.00;39661.16;5052902;28;20056;-76
2022/01/30 03:58:48;;;;;;;24.77;4.57;;;;;;;-146.64;100.00;39663.22;5053788;28;20039;-75
2022/01/30 04:01:13;;;;;;;23.02;3.13;;;;;;;-146.64;100.00;39636.59;5072205;28;20024;-75
2022/01/30 04:03:39;;;;;;;31.88;3.30;;;;;;;-146.64;100.00;39661.16;5053421;28;20656;-76
2022/01/30 04:06:05;;;;;;;25.40;2.90;;;;;;;-146.64;100.00;39628.41;5052680;28;20024;-76
2022/01/30 04:08:30;;;;;;;32.47;4.13;;;;;;;-146.64;100.00;39655.03;5060230;28;20123;-75
2022/01/30 04:10:56;;;;;;;28.45;3.80;;;;;;;-146.64;100.00;39630.47;5048032;28;20033;-76
2022/01/30 04:13:22;;;;;;;26.13;3.20;;;;;;;-146.64;100.00;39607.94;5050888;28;20369;-75
2022/01/30 04:15:47;;;;;;;24.95;3.38;;;;;;;-146.64;100.00;39624.31;5054247;28;20032;-76
2022/01/30 04:18:12;;;;;;;19.40;2.75;;;;;;;-146.64;100.00;39589.53;5047371;28;20029;-75
2022/01/30 04:20:38;;;;;;;21.15;2.83;;;;;;;-146.64;100.00;39612.03;5027527;28;20032;-75
2022/01/30 04:23:03;;;;;;;22.65;4.32;;;;;;;-146.64;100.00;39628.41;5052955;28;20028;-75
2022/01/30 04:25:29;;;;;;;25.10;4.07;;;;;;;-146.64;100.00;39628.41;5053555;28;20035;-75
2022/01/30 04:27:54;;;;;;;24.40;4.15;;;;;;;-146.64;100.00;39593.63;5071561;28;20059;-75
2022/01/30 04:30:21;;;;;;;18.60;3.20;;;;;;;-146.64;100.00;39587.47;5034876;28;20047;-76
2022/01/30 04:32:46;;;;;;;23.92;3.85;;;;;;;-146.64;100.00;39571.09;5053598;28;20424;-76
2022/01/30 04:35:19;;;;;;;33.63;4.47;;;;;;;-146.64;100.00;39579.28;5037804;28;20067;-76
2022/01/30 04:59:09;;;;;;;19.13;2.33;;;;;;;-146.64;100.00;39620.22;5039466;28;20476;-75
2022/01/30 05:09:26;;;;;;;16.48;4.00;;;;;;;-146.64;100.00;39648.88;5055494;28;20132;-75
2022/01/30 05:11:53;;;;;;;18.98;2.97;;;;;;;-146.64;100.00;39677.53;5046333;28;20540;-75
2022/01/30 05:14:21;;;;;;;29.80;3.42;;;;;;;-146.64;100.00;39677.53;5069875;28;20021;-75
2022/01/30 05:16:47;;;;;;;24.98;3.08;;;;;;;-146.64;100.00;39661.16;5048155;28;20056;-75
2022/01/30 05:19:13;;;;;;;21.13;2.70;;;;;;;-146.64;100.00;39698.00;5044384;28;20153;-75
2022/01/30 05:21:39;;;;;;;18.00;2.85;;;;;;;-146.64;100.00;39655.03;5066625;28;20082;-75
2022/01/30 05:24:05;;;;;;;21.50;3.05;;;;;;;-146.64;100.00;39687.78;5034304;28;20017;-75
2022/01/30 05:26:31;;;;;;;28.05;3.50;;;;;;;-146.64;100.00;39702.09;5068200;28;20102;-75
2022/01/30 05:28:57;;;;;;;27.58;3.28;;;;;;;-146.64;100.00;39706.19;5051599;28;20029;-75
2022/01/30 05:31:43;;;;;;;20.17;3.53;;;;;;;-146.64;100.00;39698.00;5044416;28;20519;-75
2022/01/30 05:34:09;;;;;;;28.25;3.35;;;;;;;-146.64;100.00;39720.53;5051422;28;20024;-75
2022/01/30 05:36:39;;;;;;;22.42;2.92;;;;;;;-146.64;100.00;39702.09;5035729;28;20051;-75
2022/01/30 05:39:06;;;;;;;24.58;3.22;;;;;;;-146.64;100.00;39702.09;5056127;28;20480;-74
2022/01/30 05:41:32;;;;;;;26.50;2.85;;;;;;;-146.64;100.00;39659.13;5044994;28;20499;-76
2022/01/30 05:44:06;;;;;;;33.15;4.47;;;;;;;-146.64;100.00;39702.09;5056082;28;20056;-75
2022/01/30 05:46:40;;;;;;;27.13;3.40;;;;;;;-146.64;100.00;39695.97;5057991;28;20032;-76
2022/01/30 05:49:06;;;;;;;22.95;3.55;;;;;;;-146.64;100.00;39726.66;5058785;28;20028;-76
2022/01/30 05:51:31;;;;;;;26.85;3.85;;;;;;;-146.64;100.00;39726.66;5053714;28;20434;-75
2022/01/30 05:53:56;;;;;;;26.25;3.50;;;;;;;-146.64;100.00;39738.94;5072116;28;20032;-76
2022/01/30 05:56:22;;;;;;;29.70;4.00;;;;;;;-146.64;100.00;39722.56;5065789;28;20082;-75
2022/01/30 05:58:47;;;;;;;29.02;4.07;;;;;;;-146.64;100.00;39734.84;5072080;28;20024;-75
2022/01/30 06:01:13;;;;;;;26.42;3.22;;;;;;;-146.64;100.00;39706.19;5054535;28;20464;-75
2022/01/30 06:03:38;;;;;;;30.35;3.63;;;;;;;-146.64;100.00;39726.66;5039272;28;20055;-75
2022/01/30 06:06:03;;;;;;;19.27;3.25;;;;;;;-146.64;100.00;39761.47;5051732;28;20473;-75
2022/01/30 06:08:56;;;;;;;21.80;3.35;;;;;;;-146.64;100.00;39759.41;5064896;28;20075;-75
2022/01/30 06:11:22;;;;;;;29.63;3.95;;;;;;;-146.64;100.00;39771.69;5041598;28;20027;-75
2022/01/30 06:13:47;;;;;;;23.58;3.13;;;;;;;-146.64;100.00;39747.13;5073209;28;20032;-75
2022/01/30 06:16:12;;;;;;;24.30;4.50;;;;;;;-146.64;100.00;39681.63;5038679;28;20418;-75
2022/01/30 06:18:38;;;;;;;20.05;3.35;;;;;;;-146.64;100.00;39753.28;5055769;28;20039;-75
2022/01/30 06:21:03;;;;;;;39.20;5.88;;;;;;;-146.64;100.00;39708.25;5036721;28;20039;-76
2022/01/30 06:23:28;;;;;;;33.10;5.28;;;;;;;-146.64;100.00;39622.28;5054304;28;20024;-75
2022/01/30 06:25:54;;;;;;;19.60;3.20;;;;;;;-146.64;100.00;39720.53;5055451;28;20127;-76
2022/01/30 06:28:19;;;;;;;22.13;4.03;;;;;;;-146.64;100.00;39751.22;5050366;28;20070;-75
2022/01/30 06:30:45;;;;;;;29.42;3.97;;;;;;;-146.64;100.00;39710.28;5051240;28;20032;-75
2022/01/30 06:33:10;;;;;;;18.50;3.08;;;;;;;-146.64;100.00;39724.63;5054866;28;20036;-75
2022/01/30 06:35:35;;;;;;;27.70;4.50;;;;;;;-146.64;100.00;39738.94;5054372;28;20483;-75
2022/01/30 06:38:04;;;;;;;23.73;3.22;;;;;;;-146.64;100.00;39726.66;5072447;28;20032;-74
2022/01/30 06:40:29;;;;;;;26.13;3.42;;;;;;;-146.64;100.00;39704.16;5054164;28;20035;-76
2022/01/30 06:42:54;;;;;;;28.75;3.83;;;;;;;-146.64;100.00;39724.63;5054764;28;20400;-75
2022/01/30 06:45:21;;;;;;;26.70;3.97;;;;;;;-146.64;100.00;39745.09;5072975;28;20133;-75
2022/01/30 06:47:47;;;;;;;31.52;5.60;;;;;;;-146.64;100.00;39722.56;5053259;28;20122;-75
2022/01/30 06:50:13;;;;;;;27.23;3.63;;;;;;;-146.64;100.00;39710.28;5055115;28;20028;-74
2022/01/30 06:52:38;;;;;;;26.97;3.90;;;;;;;-146.64;100.00;39730.75;5072671;28;20384;-75
2022/01/30 06:55:05;;;;;;;38.33;4.50;;;;;;;-146.64;100.00;39702.09;5053916;28;20103;-75
2022/01/30 06:57:30;;;;;;;28.15;4.32;;;;;;;-146.64;100.00;39726.66;5049783;28;20548;-75
2022/01/30 06:59:55;;;;;;;33.38;5.15;;;;;;;-146.64;100.00;39712.34;5068955;28;20028;-75
2022/01/30 07:02:21;;;;;;;26.05;3.83;;;;;;;-146.64;100.00;39728.72;5037437;28;20031;-75
2022/01/30 07:04:46;;;;;;;23.67;4.38;;;;;;;-146.64;100.00;39745.09;5054878;28;20483;-74
2022/01/30 07:07:11;;;;;;;30.35;3.92;;;;;;;-146.64;100.00;39712.34;5041793;28;20116;-75
2022/01/30 07:09:37;;;;;;;35.15;4.60;;;;;;;-146.64;100.00;39704.16;5055219;28;20476;-74
2022/01/30 07:12:02;;;;;;;30.48;4.53;;;;;;;-146.64;100.00;39685.72;5071639;28;20066;-75
2022/01/30 07:14:29;;;;;;;33.83;4.57;;;;;;;-146.64;100.00;39706.19;5043447;28;20028;-74
2022/01/30 07:16:55;;;;;;;30.50;4.78;;;;;;;-146.64;100.00;39661.16;5039371;28;20024;-75
2022/01/30 07:19:20;;;;;;;31.40;4.45;;;;;;;-146.64;100.00;39689.81;5069937;28;20472;-75
2022/01/30 07:21:45;;;;;;;35.72;4.43;;;;;;;-146.64;100.00;39575.19;5062467;28;20054;-75
2022/01/30 07:24:11;;;;;;;38.65;5.30;;;;;;;-146.64;100.00;39706.19;5055085;28;20436;-75
2022/01/30 07:26:36;;;;;;;25.63;4.28;;;;;;;-146.64;100.00;39661.16;5021469;28;20033;-74
2022/01/30 07:29:03;;;;;;;31.38;4.05;;;;;;;-146.64;100.00;39681.63;5050359;28;20112;-75
2022/01/30 07:31:29;;;;;;;33.03;5.43;;;;;;;-146.64;100.00;39702.09;5055677;28;20032;-75
2022/01/30 07:33:54;;;;;;;29.85;3.42;;;;;;;-146.64;100.00;39607.94;5053311;28;20025;-75
2022/01/30 07:36:20;;;;;;;28.35;4.15;;;;;;;-146.64;100.00;39702.09;5037542;28;20136;-76
2022/01/30 07:38:45;;;;;;;32.50;4.75;;;;;;;-146.64;100.00;39702.09;5072501;28;20060;-75
2022/01/30 07:41:11;;;;;;;21.65;3.92;;;;;;;-146.64;100.00;39693.91;5052868;28;20024;-77
2022/01/30 07:43:36;;;;;;;27.17;6.10;;;;;;;-146.64;100.00;39685.72;5053509;28;20090;-76
2022/01/30 07:46:04;;;;;;;28.88;4.22;;;;;;;-146.64;100.00;39710.28;5052060;28;20081;-75
2022/01/30 07:48:29;;;;;;;35.53;5.07;;;;;;;-146.64;100.00;39650.94;5054466;28;20020;-75
2022/01/30 07:50:54;;;;;;;31.27;4.18;;;;;;;-146.64;100.00;39657.06;5038445;28;20025;-75
2022/01/30 07:53:20;;;;;;;21.08;4.00;;;;;;;-146.64;100.00;39661.16;5036745;28;20024;-74
2022/01/30 07:55:45;;;;;;;33.15;4.18;;;;;;;-146.64;100.00;39652.97;5048577;28;20045;-76
2022/01/30 07:58:12;;;;;;;27.13;3.47;;;;;;;-146.64;100.00;39679.59;5050597;28;20381;-76
2022/01/30 08:00:38;;;;;;;28.50;4.63;;;;;;;-146.64;100.00;39710.28;5051300;28;20021;-75
2022/01/30 08:03:04;;;;;;;31.77;4.28;;;;;;;-146.64;100.00;39669.34;5030532;28;20124;-75
2022/01/30 08:05:29;;;;;;;26.10;4.03;;;;;;;-146.64;100.00;39714.38;5065433;28;20481;-76
2022/01/30 08:07:54;;;;;;;33.88;4.35;;;;;;;-146.64;100.00;39726.66;5050673;28;20033;-75
2022/01/30 08:10:20;;;;;;;30.17;4.07;;;;;;;-146.64;100.00;39734.84;5051778;28;20025;-75
2022/01/30 08:12:45;;;;;;;29.77;5.50;;;;;;;-146.64;100.00;39698.00;5049283;28;20029;-75
2022/01/30 08:15:11;;;;;;;35.97;5.22;;;;;;;-146.64;100.00;39743.03;5048015;28;20029;-75
2022/01/30 08:17:39;;;;;;;32.47;4.47;;;;;;;-146.64;100.00;39738.94;5050196;28;20461;-75
2022/01/30 08:20:06;;;;;;;34.38;6.10;;;;;;;-146.64;100.00;39648.88;5047157;28;20035;-76
2022/01/30 08:22:32;;;;;;;25.20;6.72;;;;;;;-146.64;100.00;39730.75;5028941;28;20029;-76
2022/01/30 08:24:57;;;;;;;36.03;4.80;;;;;;;-146.64;100.00;39747.13;5038242;28;20056;-75
2022/01/30 08:27:23;;;;;;;37.38;6.13;;;;;;;-146.64;100.00;39753.28;5035681;28;20400;-75
2022/01/30 08:29:48;;;;;;;24.75;4.55;;;;;;;-146.64;100.00;39714.38;5050177;28;20021;-75
2022/01/30 08:32:14;;;;;;;37.60;5.22;;;;;;;-146.64;100.00;39718.47;5029524;28;20028;-76
2022/01/30 08:34:39;;;;;;;36.30;5.70;;;;;;;-146.64;100.00;39693.91;5067309;28;20020;-75
2022/01/30 08:37:06;;;;;;;24.90;5.10;;;;;;;-146.64;100.00;39706.19;5066363;28;20401;-75
2022/01/30 08:39:32;;;;;;;25.80;4.83;;;;;;;-146.64;100.00;39702.09;5050617;28;20393;-74
2022/01/30 08:41:58;;;;;;;25.50;5.22;;;;;;;-146.64;100.00;39726.66;5068202;28;20032;-75
2022/01/30 08:44:23;;;;;;;32.05;6.15;;;;;;;-146.64;100.00;39714.38;5048368;28;20035;-74
2022/01/30 08:46:48;;;;;;;30.60;5.53;;;;;;;-146.64;100.00;39710.28;5041995;28;20205;-74
2022/01/30 08:49:14;;;;;;;31.13;4.47;;;;;;;-146.64;100.00;39624.31;5052107;28;20447;-74
2022/01/30 08:51:39;;;;;;;35.40;4.50;;;;;;;-146.64;100.00;39661.16;5044483;28;20028;-74
2022/01/30 08:54:04;;;;;;;41.08;4.90;;;;;;;-146.64;100.00;39640.69;5048092;28;20061;-75
2022/01/30 08:56:30;;;;;;;45.35;5.57;;;;;;;-146.64;100.00;39722.56;5044592;28;20484;-75
2022/01/30 08:58:55;;;;;;;41.50;5.53;;;;;;;-146.64;100.00;39665.25;5047087;28;20065;-75
2022/01/30 09:01:20;;;;;;;38.22;5.07;;;;;;;-146.64;100.00;39655.03;5049080;28;20428;-75
2022/01/30 09:03:46;;;;;;;44.17;5.88;;;;;;;-146.64;100.00;39624.31;5044390;28;20530;-75
2022/01/30 09:06:11;;;;;;;35.40;5.03;;;;;;;-146.64;100.00;39616.13;5026754;28;20030;-75
2022/01/30 09:08:36;;;;;;;43.33;6.55;;;;;;;-146.64;100.00;39569.06;5043826;28;20040;-75
2022/01/30 09:11:02;;;;;;;38.95;5.88;;;;;;;-146.64;100.00;39583.38;5029964;28;20419;-75
2022/01/30 09:13:27;;;;;;;42.25;5.55;;;;;;;-146.64;100.00;39550.63;5051451;28;20071;-75
2022/01/30 09:15:57;;;;;;;35.20;5.63;;;;;;;-146.64;100.00;39587.47;5051699;28;20085;-75
2022/01/30 09:18:23;;;;;;;35.60;5.05;;;;;;;-146.64;100.00;39550.63;5049164;28;20040;-75
2022/01/30 09:20:48;;;;;;;32.33;6.63;;;;;;;-146.64;100.00;39491.28;5047321;28;20033;-75
2022/01/30 09:23:14;;;;;;;42.38;6.22;;;;;;;-146.64;100.00;39571.09;5033835;28;20498;-75
2022/01/30 09:25:39;;;;;;;37.88;5.78;;;;;;;-146.64;100.00;39517.91;5050831;28;20021;-75
2022/01/30 09:28:05;;;;;;;39.05;5.30;;;;;;;-146.64;100.00;39558.81;5031154;28;20555;-76
2022/01/30 09:30:31;;;;;;;39.33;5.45;;;;;;;-146.64;100.00;39501.53;5048463;28;20032;-76
2022/01/30 09:32:56;;;;;;;39.53;6.05;;;;;;;-146.64;100.00;39513.81;5052601;28;20024;-76
2022/01/30 09:35:22;;;;;;;33.80;5.60;;;;;;;-146.64;100.00;39493.34;5034604;28;20127;-75
2022/01/30 09:37:47;;;;;;;37.37;5.10;;;;;;;-146.64;100.00;39507.66;5061022;28;20082;-75
2022/01/30 09:40:14;;;;;;;37.10;6.07;;;;;;;-146.64;100.00;39493.34;5024503;28;20750;-75
2022/01/30 09:42:43;;;;;;;33.53;5.43;;;;;;;-146.64;100.00;39489.25;5061734;28;20025;-75
2022/01/30 09:45:10;;;;;;;31.75;4.82;;;;;;;-146.64;100.00;39481.06;5047464;28;20033;-76
2022/01/30 09:47:35;;;;;;;48.42;5.78;;;;;;;-146.64;100.00;39464.69;5043285;28;20505;-76
2022/01/30 09:50:01;;;;;;;26.77;5.80;;;;;;;-146.64;100.00;39485.16;5065095;28;20033;-76
2022/01/30 09:52:27;;;;;;;39.13;5.90;;;;;;;-146.64;100.00;39485.16;5044638;28;20071;-76
2022/01/30 09:54:52;;;;;;;36.30;4.97;;;;;;;-146.64;100.00;39407.38;5046952;28;20500;-75
2022/01/30 09:57:18;;;;;;;29.88;4.53;;;;;;;-146.64;100.00;39452.41;5046386;28;20057;-75
2022/01/30 09:59:43;;;;;;;46.25;6.18;;;;;;;-146.64;100.00;39431.94;5043099;28;20071;-75
2022/01/30 10:02:09;;;;;;;33.55;5.50;;;;;;;-146.64;100.00;39415.56;5048836;28;20032;-75
2022/01/30 10:04:35;;;;;;;29.92;5.88;;;;;;;-146.64;100.00;39419.66;5039829;28;20028;-75
2022/01/30 10:07:07;;;;;;;32.20;4.72;;;;;;;-146.64;100.00;39370.53;5047111;28;20037;-75
2022/01/30 10:09:35;;;;;;;28.98;5.25;;;;;;;-146.64;100.00;39382.81;5051269;28;20370;-75
2022/01/30 10:12:13;;;;;;;35.20;5.57;;;;;;;-146.64;100.00;39350.06;5031283;28;20692;-75
2022/01/30 10:14:57;;;;;;;;;;;;;;;-146.64;100.00;39366.44;5038826;28;20438;-75
2022/01/30 10:17:30;;;;;;;29.92;5.25;;;;;;;-146.64;100.00;39313.22;5037517;28;19923;-75
2022/01/30 10:20:07;;;;;;;30.83;4.57;;;;;;;-146.64;100.00;39327.56;5044937;28;20029;-75
2022/01/30 10:22:34;;;;;;;;;;;;;;;-146.64;100.00;39280.47;5044051;28;20040;-75
2022/01/30 10:24:59;;;;;;;30.20;4.40;;;;;;;-146.64;100.00;39280.47;5037761;28;19915;-75
2022/01/30 10:27:27;;;;;;;33.15;5.40;;;;;;;-146.64;100.00;39276.38;5052138;28;20100;-75
2022/01/30 10:29:58;;;;;;;37.22;5.68;;;;;;;-146.64;100.00;39313.22;5031494;28;20041;-75
2022/01/30 10:32:23;;;;;;;35.70;5.70;;;;;;;-146.64;100.00;39329.59;5052298;28;20032;-76
2022/01/30 10:34:57;;;;;;;28.25;5.13;;;;;;;-146.64;100.00;39350.06;5050640;28;20033;-75
2022/01/30 10:37:24;;;;;;;26.48;4.55;;;;;;;-146.64;100.00;39296.84;5047131;28;20030;-76
2022/01/30 10:40:23;;;;;;;23.83;4.18;;;;;;;-146.64;100.00;39292.75;5016799;28;20037;-75
2022/01/30 10:42:51;;;;;;;41.83;5.82;;;;;;;-146.64;99.24;39300.94;5046871;28;20393;-75
2022/01/30 10:45:19;;;;;;;32.72;5.32;;;;;;;-146.64;97.13;39268.19;5049850;28;20135;-76
2022/01/30 10:47:44;;;;;;;29.75;5.03;;;;;;;-146.64;97.39;39239.56;5040508;28;20068;-76
2022/01/30 10:50:15;;;;;;;32.83;4.80;;;;;;;-146.64;95.93;39182.25;5023225;28;20057;-76
2022/01/30 10:52:51;;;;;;;24.20;4.53;;;;;;;-146.64;87.64;39204.75;5033435;28;20488;-75
2022/01/30 10:55:18;;;;;;;27.15;4.97;;;;;;;-146.64;84.25;39161.78;5040685;28;20079;-75
2022/01/30 10:57:45;;;;;;;43.55;6.28;;;;;;;-146.64;90.08;39194.53;5027119;28;20116;-75
2022/01/30 11:00:10;;;;;;;31.00;6.05;;;;;;;-146.64;84.62;39215.00;5028884;28;20179;-76
2022/01/30 11:02:38;;;;;;;26.42;4.07;;;;;;;-146.64;86.84;39223.19;5046285;28;20616;-76
2022/01/30 11:05:07;;;;;;;28.75;4.97;;;;;;;-146.64;89.90;39227.28;5045850;28;20044;-77
2022/01/30 11:07:34;;;;;;;31.63;5.40;;;;;;;-146.64;89.89;39280.47;5052636;28;20040;-76
2022/01/30 11:10:19;;;;;;;31.25;4.57;;;;;;;-146.64;90.89;39243.66;5034783;28;20067;-77
2022/01/30 11:12:56;;;;;;;31.48;4.97;;;;;;;-146.64;92.03;39284.56;5036176;28;20069;-75
2022/01/30 11:15:43;;;;;;;24.02;4.30;;;;;;;-146.64;94.17;39268.19;5067510;28;20434;-75
2022/01/30 11:18:11;;;;;;;30.20;6.00;;;;;;;-146.64;89.98;39245.69;5066579;28;20028;-76
2022/01/30 11:20:37;;;;;;;29.05;4.88;;;;;;;-146.64;88.26;39284.56;5048864;28;20033;-75
2022/01/30 11:23:03;;;;;;;35.33;4.82;;;;;;;-146.64;92.14;39124.94;5065162;28;20079;-75
2022/01/30 11:25:33;;;;;;;27.38;4.13;;;;;;;-146.64;90.50;39198.63;5051713;28;20116;-77
2022/01/30 11:28:01;;;;;;;33.80;5.20;;;;;;;-146.64;93.01;39280.47;5042231;28;20436;-76
2022/01/30 11:30:27;;;;;;;26.63;5.18;;;;;;;-146.64;92.41;39300.94;5046767;28;20104;-76
2022/01/30 11:32:53;;;;;;;31.25;3.92;;;;;;;-146.64;90.69;39305.03;5053765;28;20063;-75
2022/01/30 11:35:18;;;;;;;34.65;6.05;;;;;;;-146.64;86.25;39198.63;5051434;28;20029;-75
2022/01/30 11:37:44;;;;;;;29.15;4.80;;;;;;;-146.64;87.58;39145.41;5050879;28;20074;-74
2022/01/30 11:40:15;;;;;;;43.58;5.65;;;;;;;-146.64;80.21;39145.41;5050391;28;20033;-74
2022/01/30 11:42:47;;;;;;;33.15;5.32;;;;;;;-146.64;79.38;39161.78;5040881;28;20037;-75
2022/01/30 11:45:27;;;;;;;33.55;5.07;;;;;;;-146.64;81.91;39169.97;5051182;28;20072;-74
2022/01/30 11:48:03;;;;;;;33.20;5.03;;;;;;;-146.64;78.39;39026.72;5051106;28;20369;-75
2022/01/30 11:50:34;;;;;;;32.58;5.22;;;;;;;-146.64;81.54;39051.28;5048732;28;20045;-74
2022/01/30 11:53:10;;;;;;;31.17;5.38;;;;;;;-146.64;73.91;39088.09;5026572;28;20485;-76
2022/01/30 11:55:55;;;;;;;30.98;4.95;;;;;;;-146.64;77.29;39092.19;5069760;28;20029;-74
2022/01/30 11:58:29;;;;;;;31.10;4.88;;;;;;;-146.64;74.98;39178.16;5036098;28;20108;-74
2022/01/30 12:00:55;;;;;;;31.52;5.43;;;;;;;-146.64;78.03;39153.59;5068453;28;20025;-75
2022/01/30 12:03:27;;;;;;;30.33;3.97;;;;;;;-146.64;82.01;39233.41;5035191;28;20031;-74
2022/01/30 12:05:54;;;;;;;31.73;5.35;;;;;;;-146.64;82.87;39186.34;5033336;28;20021;-75